sensor_id;sensor_type;location;lat;lon;timestamp;P1;durP1;ratioP1;P2;durP2;ratioP2
15402;SDS011;7799;53.478;10.170;2023-07-24T00:00:15;1.90;;;1.80;;
15402;SDS011;7799;53.478;10.170;2023-07-24T00:02:42;1.90;;;1.80;;
15402;SDS011;7799;53.478;10.170;2023-07-24T00:05:08;2.00;;;1.90;;
15402;SDS011;7799;53.478;10.170;2023-07-24T00:07:37;2.17;;;2.07;;
15402;SDS011;7799;53.478;10.170;2023-07-24T00:10:04;2.63;;;2.43;;
15402;SDS011;7799;53.478;10.170;2023-07-24T00:12:31;2.60;;;2.40;;
15402;SDS011;7799;53.478;10.170;2023-07-24T00:14:58;2.20;;;2.00;;
15402;SDS011;7799;53.478;10.170;2023-07-24T00:17:25;2.10;;;2.00;;
15402;SDS011;7799;53.478;10.170;2023-07-24T00:19:51;1.80;;;1.70;;
15402;SDS011;7799;53.478;10.170;2023-07-24T00:22:18;1.80;;;1.70;;
15402;SDS011;7799;53.478;10.170;2023-07-24T00:24:46;1.60;;;1.50;;
15402;SDS011;7799;53.478;10.170;2023-07-24T00:27:13;1.90;;;1.80;;
15402;SDS011;7799;53.478;10.170;2023-07-24T00:29:40;2.03;;;1.70;;
15402;SDS011;7799;53.478;10.170;2023-07-24T00:32:07;2.50;;;2.30;;
15402;SDS011;7799;53.478;10.170;2023-07-24T00:34:34;2.37;;;2.27;;
15402;SDS011;7799;53.478;10.170;2023-07-24T00:37:01;2.27;;;2.07;;
15402;SDS011;7799;53.478;10.170;2023-07-24T00:39:28;2.20;;;2.10;;
15402;SDS011;7799;53.478;10.170;2023-07-24T00:41:57;2.10;;;2.00;;
15402;SDS011;7799;53.478;10.170;2023-07-24T00:44:24;1.90;;;1.80;;
15402;SDS011;7799;53.478;10.170;2023-07-24T00:46:50;1.80;;;1.70;;
15402;SDS011;7799;53.478;10.170;2023-07-24T00:49:19;2.20;;;2.00;;
15402;SDS011;7799;53.478;10.170;2023-07-24T00:51:46;2.03;;;1.93;;
15402;SDS011;7799;53.478;10.170;2023-07-24T00:54:12;1.90;;;1.80;;
15402;SDS011;7799;53.478;10.170;2023-07-24T00:56:39;2.07;;;1.90;;
15402;SDS011;7799;53.478;10.170;2023-07-24T00:59:07;2.20;;;2.00;;
15402;SDS011;7799;53.478;10.170;2023-07-24T01:01:34;2.23;;;2.03;;
15402;SDS011;7799;53.478;10.170;2023-07-24T01:04:01;2.07;;;1.97;;
15402;SDS011;7799;53.478;10.170;2023-07-24T01:06:31;2.07;;;1.97;;
15402;SDS011;7799;53.478;10.170;2023-07-24T01:08:58;1.70;;;1.60;;
15402;SDS011;7799;53.478;10.170;2023-07-24T01:11:26;1.63;;;1.53;;
15402;SDS011;7799;53.478;10.170;2023-07-24T01:13:56;1.77;;;1.67;;
15402;SDS011;7799;53.478;10.170;2023-07-24T01:16:26;2.10;;;2.00;;
15402;SDS011;7799;53.478;10.170;2023-07-24T01:18:56;1.80;;;1.70;;
15402;SDS011;7799;53.478;10.170;2023-07-24T01:21:26;2.30;;;2.20;;
15402;SDS011;7799;53.478;10.170;2023-07-24T01:23:58;1.70;;;1.60;;
15402;SDS011;7799;53.478;10.170;2023-07-24T01:26:31;1.83;;;1.73;;
15402;SDS011;7799;53.478;10.170;2023-07-24T01:28:58;2.10;;;2.00;;
15402;SDS011;7799;53.478;10.170;2023-07-24T01:31:24;1.60;;;1.50;;
15402;SDS011;7799;53.478;10.170;2023-07-24T01:33:51;1.70;;;1.60;;
15402;SDS011;7799;53.478;10.170;2023-07-24T01:36:18;1.70;;;1.60;;
15402;SDS011;7799;53.478;10.170;2023-07-24T01:38:45;1.30;;;1.20;;
15402;SDS011;7799;53.478;10.170;2023-07-24T01:41:12;1.50;;;1.40;;
15402;SDS011;7799;53.478;10.170;2023-07-24T01:43:40;1.10;;;1.10;;
15402;SDS011;7799;53.478;10.170;2023-07-24T01:46:07;1.23;;;1.23;;
15402;SDS011;7799;53.478;10.170;2023-07-24T01:48:35;1.40;;;1.30;;
15402;SDS011;7799;53.478;10.170;2023-07-24T01:51:01;1.70;;;1.60;;
15402;SDS011;7799;53.478;10.170;2023-07-24T01:53:28;2.17;;;2.07;;
15402;SDS011;7799;53.478;10.170;2023-07-24T01:55:55;1.90;;;1.80;;
15402;SDS011;7799;53.478;10.170;2023-07-24T01:58:21;1.93;;;1.83;;
15402;SDS011;7799;53.478;10.170;2023-07-24T02:00:50;2.20;;;2.10;;
15402;SDS011;7799;53.478;10.170;2023-07-24T02:03:16;1.70;;;1.60;;
15402;SDS011;7799;53.478;10.170;2023-07-24T02:05:48;1.70;;;1.60;;
15402;SDS011;7799;53.478;10.170;2023-07-24T02:08:15;1.60;;;1.50;;
15402;SDS011;7799;53.478;10.170;2023-07-24T02:10:42;2.10;;;2.00;;
15402;SDS011;7799;53.478;10.170;2023-07-24T02:13:08;1.77;;;1.67;;
15402;SDS011;7799;53.478;10.170;2023-07-24T02:15:36;2.20;;;2.10;;
15402;SDS011;7799;53.478;10.170;2023-07-24T02:18:04;2.00;;;1.90;;
15402;SDS011;7799;53.478;10.170;2023-07-24T02:20:30;2.30;;;2.10;;
15402;SDS011;7799;53.478;10.170;2023-07-24T02:22:57;2.87;;;2.07;;
15402;SDS011;7799;53.478;10.170;2023-07-24T02:25:24;1.80;;;1.70;;
15402;SDS011;7799;53.478;10.170;2023-07-24T02:27:50;1.80;;;1.70;;
15402;SDS011;7799;53.478;10.170;2023-07-24T02:30:17;1.80;;;1.70;;
15402;SDS011;7799;53.478;10.170;2023-07-24T02:32:43;1.60;;;1.50;;
15402;SDS011;7799;53.478;10.170;2023-07-24T02:35:11;1.60;;;1.50;;
15402;SDS011;7799;53.478;10.170;2023-07-24T02:37:38;1.83;;;1.73;;
15402;SDS011;7799;53.478;10.170;2023-07-24T02:40:05;1.80;;;1.70;;
15402;SDS011;7799;53.478;10.170;2023-07-24T02:42:33;1.57;;;1.47;;
15402;SDS011;7799;53.478;10.170;2023-07-24T02:44:59;2.53;;;2.20;;
15402;SDS011;7799;53.478;10.170;2023-07-24T02:47:28;2.40;;;2.30;;
15402;SDS011;7799;53.478;10.170;2023-07-24T02:49:54;2.00;;;1.90;;
15402;SDS011;7799;53.478;10.170;2023-07-24T02:52:23;2.33;;;2.13;;
15402;SDS011;7799;53.478;10.170;2023-07-24T02:54:50;2.10;;;2.00;;
15402;SDS011;7799;53.478;10.170;2023-07-24T02:57:17;1.60;;;1.50;;
15402;SDS011;7799;53.478;10.170;2023-07-24T02:59:43;1.80;;;1.70;;
15402;SDS011;7799;53.478;10.170;2023-07-24T03:02:10;1.70;;;1.60;;
15402;SDS011;7799;53.478;10.170;2023-07-24T03:04:37;1.73;;;1.63;;
15402;SDS011;7799;53.478;10.170;2023-07-24T03:07:03;2.13;;;1.77;;
15402;SDS011;7799;53.478;10.170;2023-07-24T03:09:31;1.67;;;1.57;;
15402;SDS011;7799;53.478;10.170;2023-07-24T03:11:58;1.80;;;1.70;;
15402;SDS011;7799;53.478;10.170;2023-07-24T03:14:25;1.60;;;1.50;;
15402;SDS011;7799;53.478;10.170;2023-07-24T03:16:52;2.00;;;1.90;;
15402;SDS011;7799;53.478;10.170;2023-07-24T03:19:18;2.13;;;2.03;;
15402;SDS011;7799;53.478;10.170;2023-07-24T03:21:45;1.90;;;1.80;;
15402;SDS011;7799;53.478;10.170;2023-07-24T03:24:12;1.77;;;1.67;;
15402;SDS011;7799;53.478;10.170;2023-07-24T03:26:40;1.63;;;1.53;;
15402;SDS011;7799;53.478;10.170;2023-07-24T03:29:06;1.90;;;1.80;;
15402;SDS011;7799;53.478;10.170;2023-07-24T03:31:33;1.60;;;1.50;;
15402;SDS011;7799;53.478;10.170;2023-07-24T03:34:00;1.67;;;1.57;;
15402;SDS011;7799;53.478;10.170;2023-07-24T03:36:26;1.80;;;1.70;;
15402;SDS011;7799;53.478;10.170;2023-07-24T03:38:53;1.90;;;1.80;;
15402;SDS011;7799;53.478;10.170;2023-07-24T03:41:20;2.20;;;2.00;;
15402;SDS011;7799;53.478;10.170;2023-07-24T03:43:48;2.33;;;2.13;;
15402;SDS011;7799;53.478;10.170;2023-07-24T03:46:14;1.87;;;1.77;;
15402;SDS011;7799;53.478;10.170;2023-07-24T03:48:41;1.93;;;1.70;;
15402;SDS011;7799;53.478;10.170;2023-07-24T03:51:08;1.80;;;1.70;;
15402;SDS011;7799;53.478;10.170;2023-07-24T03:53:34;1.70;;;1.60;;
15402;SDS011;7799;53.478;10.170;2023-07-24T03:56:01;2.03;;;1.83;;
15402;SDS011;7799;53.478;10.170;2023-07-24T03:58:28;2.33;;;2.07;;
15402;SDS011;7799;53.478;10.170;2023-07-24T04:00:56;2.40;;;2.20;;
15402;SDS011;7799;53.478;10.170;2023-07-24T04:03:22;2.20;;;2.00;;
15402;SDS011;7799;53.478;10.170;2023-07-24T04:05:49;2.00;;;1.80;;
15402;SDS011;7799;53.478;10.170;2023-07-24T04:08:16;2.20;;;2.10;;
15402;SDS011;7799;53.478;10.170;2023-07-24T04:10:42;1.90;;;1.80;;
15402;SDS011;7799;53.478;10.170;2023-07-24T04:13:09;2.00;;;1.90;;
15402;SDS011;7799;53.478;10.170;2023-07-24T04:15:35;2.47;;;2.27;;
15402;SDS011;7799;53.478;10.170;2023-07-24T04:18:04;2.30;;;2.10;;
15402;SDS011;7799;53.478;10.170;2023-07-24T04:20:31;1.90;;;1.80;;
15402;SDS011;7799;53.478;10.170;2023-07-24T04:22:58;2.00;;;1.90;;
15402;SDS011;7799;53.478;10.170;2023-07-24T04:25:24;1.90;;;1.80;;
15402;SDS011;7799;53.478;10.170;2023-07-24T04:27:51;2.80;;;2.60;;
15402;SDS011;7799;53.478;10.170;2023-07-24T04:30:18;2.10;;;2.00;;
15402;SDS011;7799;53.478;10.170;2023-07-24T04:32:44;2.80;;;2.60;;
15402;SDS011;7799;53.478;10.170;2023-07-24T04:35:12;2.70;;;2.50;;
15402;SDS011;7799;53.478;10.170;2023-07-24T04:37:39;2.90;;;2.70;;
15402;SDS011;7799;53.478;10.170;2023-07-24T04:40:06;2.73;;;2.53;;
15402;SDS011;7799;53.478;10.170;2023-07-24T04:42:33;2.77;;;2.57;;
15402;SDS011;7799;53.478;10.170;2023-07-24T04:45:00;3.43;;;3.10;;
15402;SDS011;7799;53.478;10.170;2023-07-24T04:47:27;2.43;;;2.33;;
15402;SDS011;7799;53.478;10.170;2023-07-24T04:49:54;2.77;;;2.57;;
15402;SDS011;7799;53.478;10.170;2023-07-24T04:52:22;2.60;;;2.40;;
15402;SDS011;7799;53.478;10.170;2023-07-24T04:54:48;2.40;;;2.20;;
15402;SDS011;7799;53.478;10.170;2023-07-24T04:57:15;2.30;;;2.20;;
15402;SDS011;7799;53.478;10.170;2023-07-24T04:59:42;2.67;;;2.47;;
15402;SDS011;7799;53.478;10.170;2023-07-24T05:02:08;2.33;;;2.13;;
15402;SDS011;7799;53.478;10.170;2023-07-24T05:04:35;2.53;;;2.33;;
15402;SDS011;7799;53.478;10.170;2023-07-24T05:07:02;2.63;;;2.43;;
15402;SDS011;7799;53.478;10.170;2023-07-24T05:09:30;2.30;;;2.10;;
15402;SDS011;7799;53.478;10.170;2023-07-24T05:11:56;2.00;;;1.90;;
15402;SDS011;7799;53.478;10.170;2023-07-24T05:14:23;2.57;;;2.37;;
15402;SDS011;7799;53.478;10.170;2023-07-24T05:16:50;1.80;;;1.70;;
15402;SDS011;7799;53.478;10.170;2023-07-24T05:19:16;2.13;;;2.03;;
15402;SDS011;7799;53.478;10.170;2023-07-24T05:21:43;2.10;;;2.00;;
15402;SDS011;7799;53.478;10.170;2023-07-24T05:24:10;2.57;;;2.37;;
15402;SDS011;7799;53.478;10.170;2023-07-24T05:26:38;2.90;;;2.70;;
15402;SDS011;7799;53.478;10.170;2023-07-24T05:29:04;2.90;;;2.70;;
15402;SDS011;7799;53.478;10.170;2023-07-24T05:31:31;2.83;;;2.60;;
15402;SDS011;7799;53.478;10.170;2023-07-24T05:33:57;2.43;;;2.33;;
15402;SDS011;7799;53.478;10.170;2023-07-24T05:36:24;2.80;;;2.60;;
15402;SDS011;7799;53.478;10.170;2023-07-24T05:38:51;2.50;;;2.40;;
15402;SDS011;7799;53.478;10.170;2023-07-24T05:41:18;2.90;;;2.70;;
15402;SDS011;7799;53.478;10.170;2023-07-24T05:43:46;2.53;;;2.37;;
15402;SDS011;7799;53.478;10.170;2023-07-24T05:46:12;2.40;;;2.20;;
15402;SDS011;7799;53.478;10.170;2023-07-24T05:48:39;2.63;;;2.47;;
15402;SDS011;7799;53.478;10.170;2023-07-24T05:51:05;2.50;;;2.30;;
15402;SDS011;7799;53.478;10.170;2023-07-24T05:53:32;2.10;;;2.00;;
15402;SDS011;7799;53.478;10.170;2023-07-24T05:55:59;2.13;;;2.03;;
15402;SDS011;7799;53.478;10.170;2023-07-24T05:58:26;2.17;;;2.07;;
15402;SDS011;7799;53.478;10.170;2023-07-24T06:00:55;2.90;;;2.70;;
15402;SDS011;7799;53.478;10.170;2023-07-24T06:03:21;2.33;;;2.23;;
15402;SDS011;7799;53.478;10.170;2023-07-24T06:05:50;1.93;;;1.83;;
15402;SDS011;7799;53.478;10.170;2023-07-24T06:08:18;2.23;;;2.03;;
15402;SDS011;7799;53.478;10.170;2023-07-24T06:10:45;2.13;;;2.03;;
15402;SDS011;7799;53.478;10.170;2023-07-24T06:13:12;2.10;;;2.00;;
15402;SDS011;7799;53.478;10.170;2023-07-24T06:15:39;2.40;;;2.20;;
15402;SDS011;7799;53.478;10.170;2023-07-24T06:18:07;2.03;;;1.93;;
15402;SDS011;7799;53.478;10.170;2023-07-24T06:20:34;1.80;;;1.70;;
15402;SDS011;7799;53.478;10.170;2023-07-24T06:23:00;1.93;;;1.83;;
15402;SDS011;7799;53.478;10.170;2023-07-24T06:25:29;1.77;;;1.67;;
15402;SDS011;7799;53.478;10.170;2023-07-24T06:27:55;1.83;;;1.73;;
15402;SDS011;7799;53.478;10.170;2023-07-24T06:30:22;1.70;;;1.60;;
15402;SDS011;7799;53.478;10.170;2023-07-24T06:32:49;1.70;;;1.60;;
15402;SDS011;7799;53.478;10.170;2023-07-24T06:35:17;2.03;;;1.93;;
15402;SDS011;7799;53.478;10.170;2023-07-24T06:37:43;2.00;;;1.90;;
15402;SDS011;7799;53.478;10.170;2023-07-24T06:40:10;1.77;;;1.67;;
15402;SDS011;7799;53.478;10.170;2023-07-24T06:42:37;1.80;;;1.70;;
15402;SDS011;7799;53.478;10.170;2023-07-24T06:45:05;1.80;;;1.70;;
15402;SDS011;7799;53.478;10.170;2023-07-24T06:47:32;1.60;;;1.50;;
15402;SDS011;7799;53.478;10.170;2023-07-24T06:49:59;2.30;;;2.10;;
15402;SDS011;7799;53.478;10.170;2023-07-24T06:52:28;1.80;;;1.70;;
15402;SDS011;7799;53.478;10.170;2023-07-24T06:54:55;1.60;;;1.50;;
15402;SDS011;7799;53.478;10.170;2023-07-24T06:57:23;1.93;;;1.40;;
15402;SDS011;7799;53.478;10.170;2023-07-24T06:59:49;1.60;;;1.50;;
15402;SDS011;7799;53.478;10.170;2023-07-24T07:02:16;1.57;;;1.47;;
15402;SDS011;7799;53.478;10.170;2023-07-24T07:04:43;1.43;;;1.27;;
15402;SDS011;7799;53.478;10.170;2023-07-24T07:07:10;1.80;;;1.70;;
15402;SDS011;7799;53.478;10.170;2023-07-24T07:09:39;1.87;;;1.77;;
15402;SDS011;7799;53.478;10.170;2023-07-24T07:12:06;1.63;;;1.53;;
15402;SDS011;7799;53.478;10.170;2023-07-24T07:14:33;1.60;;;1.50;;
15402;SDS011;7799;53.478;10.170;2023-07-24T07:17:00;1.70;;;1.60;;
15402;SDS011;7799;53.478;10.170;2023-07-24T07:19:27;1.63;;;1.53;;
15402;SDS011;7799;53.478;10.170;2023-07-24T07:21:54;1.90;;;1.80;;
15402;SDS011;7799;53.478;10.170;2023-07-24T07:24:20;1.73;;;1.63;;
15402;SDS011;7799;53.478;10.170;2023-07-24T07:26:48;1.67;;;1.57;;
15402;SDS011;7799;53.478;10.170;2023-07-24T07:29:15;1.50;;;1.40;;
15402;SDS011;7799;53.478;10.170;2023-07-24T07:31:42;1.50;;;1.40;;
15402;SDS011;7799;53.478;10.170;2023-07-24T07:34:08;1.40;;;1.30;;
15402;SDS011;7799;53.478;10.170;2023-07-24T07:36:35;1.53;;;1.43;;
15402;SDS011;7799;53.478;10.170;2023-07-24T07:39:02;1.53;;;1.43;;
15402;SDS011;7799;53.478;10.170;2023-07-24T07:41:28;1.20;;;1.20;;
15402;SDS011;7799;53.478;10.170;2023-07-24T07:43:56;1.60;;;1.50;;
15402;SDS011;7799;53.478;10.170;2023-07-24T07:46:23;1.30;;;1.20;;
15402;SDS011;7799;53.478;10.170;2023-07-24T07:48:50;1.37;;;1.27;;
15402;SDS011;7799;53.478;10.170;2023-07-24T07:51:17;1.47;;;1.37;;
15402;SDS011;7799;53.478;10.170;2023-07-24T07:53:44;1.23;;;1.23;;
15402;SDS011;7799;53.478;10.170;2023-07-24T07:56:10;1.40;;;1.30;;
15402;SDS011;7799;53.478;10.170;2023-07-24T07:58:37;1.47;;;1.37;;
15402;SDS011;7799;53.478;10.170;2023-07-24T08:01:05;1.37;;;1.33;;
15402;SDS011;7799;53.478;10.170;2023-07-24T08:03:32;1.40;;;1.30;;
15402;SDS011;7799;53.478;10.170;2023-07-24T08:05:59;1.40;;;1.30;;
15402;SDS011;7799;53.478;10.170;2023-07-24T08:08:26;0.97;;;0.97;;
15402;SDS011;7799;53.478;10.170;2023-07-24T08:10:52;1.43;;;1.33;;
15402;SDS011;7799;53.478;10.170;2023-07-24T08:13:19;1.40;;;1.30;;
15402;SDS011;7799;53.478;10.170;2023-07-24T08:15:46;1.73;;;1.63;;
15402;SDS011;7799;53.478;10.170;2023-07-24T08:18:14;1.60;;;1.50;;
15402;SDS011;7799;53.478;10.170;2023-07-24T08:20:40;1.80;;;1.70;;
15402;SDS011;7799;53.478;10.170;2023-07-24T08:23:07;1.43;;;1.33;;
15402;SDS011;7799;53.478;10.170;2023-07-24T08:25:34;1.40;;;1.30;;
15402;SDS011;7799;53.478;10.170;2023-07-24T08:28:00;1.63;;;1.53;;
15402;SDS011;7799;53.478;10.170;2023-07-24T08:30:27;2.20;;;2.10;;
15402;SDS011;7799;53.478;10.170;2023-07-24T08:32:54;2.67;;;2.47;;
15402;SDS011;7799;53.478;10.170;2023-07-24T08:35:22;2.63;;;2.43;;
15402;SDS011;7799;53.478;10.170;2023-07-24T08:37:49;2.53;;;2.43;;
15402;SDS011;7799;53.478;10.170;2023-07-24T08:40:16;3.10;;;2.90;;
15402;SDS011;7799;53.478;10.170;2023-07-24T08:42:43;3.10;;;2.90;;
15402;SDS011;7799;53.478;10.170;2023-07-24T08:45:11;3.60;;;3.37;;
15402;SDS011;7799;53.478;10.170;2023-07-24T08:47:39;3.90;;;3.70;;
15402;SDS011;7799;53.478;10.170;2023-07-24T08:50:08;3.80;;;3.60;;
15402;SDS011;7799;53.478;10.170;2023-07-24T08:52:37;4.07;;;3.80;;
15402;SDS011;7799;53.478;10.170;2023-07-24T08:55:05;3.43;;;3.23;;
15402;SDS011;7799;53.478;10.170;2023-07-24T08:57:32;3.97;;;3.73;;
15402;SDS011;7799;53.478;10.170;2023-07-24T08:59:59;3.93;;;3.73;;
15402;SDS011;7799;53.478;10.170;2023-07-24T09:02:29;3.67;;;3.47;;
15402;SDS011;7799;53.478;10.170;2023-07-24T09:04:56;3.60;;;3.40;;
15402;SDS011;7799;53.478;10.170;2023-07-24T09:07:23;3.30;;;3.10;;
15402;SDS011;7799;53.478;10.170;2023-07-24T09:09:51;3.53;;;3.33;;
15402;SDS011;7799;53.478;10.170;2023-07-24T09:12:18;4.07;;;3.87;;
15402;SDS011;7799;53.478;10.170;2023-07-24T09:14:44;4.00;;;3.80;;
15402;SDS011;7799;53.478;10.170;2023-07-24T09:17:11;3.90;;;3.70;;
15402;SDS011;7799;53.478;10.170;2023-07-24T09:19:38;3.60;;;3.40;;
15402;SDS011;7799;53.478;10.170;2023-07-24T09:22:08;4.30;;;4.03;;
15402;SDS011;7799;53.478;10.170;2023-07-24T09:24:36;4.60;;;4.30;;
15402;SDS011;7799;53.478;10.170;2023-07-24T09:27:06;4.00;;;3.80;;
15402;SDS011;7799;53.478;10.170;2023-07-24T09:29:33;4.70;;;4.40;;
15402;SDS011;7799;53.478;10.170;2023-07-24T09:32:00;4.27;;;4.03;;
15402;SDS011;7799;53.478;10.170;2023-07-24T09:34:27;4.80;;;4.50;;
15402;SDS011;7799;53.478;10.170;2023-07-24T09:36:53;4.47;;;4.17;;
15402;SDS011;7799;53.478;10.170;2023-07-24T09:39:23;3.80;;;3.60;;
15402;SDS011;7799;53.478;10.170;2023-07-24T09:41:50;3.70;;;3.40;;
15402;SDS011;7799;53.478;10.170;2023-07-24T09:44:19;3.80;;;3.60;;
15402;SDS011;7799;53.478;10.170;2023-07-24T09:46:45;3.53;;;3.33;;
15402;SDS011;7799;53.478;10.170;2023-07-24T09:49:12;3.10;;;2.90;;
15402;SDS011;7799;53.478;10.170;2023-07-24T09:51:38;3.20;;;3.00;;
15402;SDS011;7799;53.478;10.170;2023-07-24T09:54:06;3.60;;;3.40;;
15402;SDS011;7799;53.478;10.170;2023-07-24T09:56:35;4.20;;;3.90;;
15402;SDS011;7799;53.478;10.170;2023-07-24T09:59:02;4.20;;;3.90;;
15402;SDS011;7799;53.478;10.170;2023-07-24T10:01:32;3.70;;;3.50;;
15402;SDS011;7799;53.478;10.170;2023-07-24T10:03:59;4.73;;;4.43;;
15402;SDS011;7799;53.478;10.170;2023-07-24T10:06:26;4.20;;;3.90;;
15402;SDS011;7799;53.478;10.170;2023-07-24T10:08:54;3.73;;;3.53;;
15402;SDS011;7799;53.478;10.170;2023-07-24T10:11:21;3.67;;;3.47;;
15402;SDS011;7799;53.478;10.170;2023-07-24T10:13:48;3.60;;;3.40;;
15402;SDS011;7799;53.478;10.170;2023-07-24T10:16:15;3.40;;;3.20;;
15402;SDS011;7799;53.478;10.170;2023-07-24T10:18:44;3.50;;;3.30;;
15402;SDS011;7799;53.478;10.170;2023-07-24T10:21:12;3.50;;;3.30;;
15402;SDS011;7799;53.478;10.170;2023-07-24T10:23:40;3.70;;;3.50;;
15402;SDS011;7799;53.478;10.170;2023-07-24T10:26:08;4.27;;;4.00;;
15402;SDS011;7799;53.478;10.170;2023-07-24T10:28:35;4.50;;;4.20;;
15402;SDS011;7799;53.478;10.170;2023-07-24T10:31:04;4.57;;;4.27;;
15402;SDS011;7799;53.478;10.170;2023-07-24T10:33:34;4.07;;;3.80;;
15402;SDS011;7799;53.478;10.170;2023-07-24T10:36:05;4.27;;;4.07;;
15402;SDS011;7799;53.478;10.170;2023-07-24T10:38:35;4.00;;;3.70;;
15402;SDS011;7799;53.478;10.170;2023-07-24T10:41:02;4.00;;;3.70;;
15402;SDS011;7799;53.478;10.170;2023-07-24T10:43:39;4.17;;;3.93;;
15402;SDS011;7799;53.478;10.170;2023-07-24T10:46:07;3.80;;;3.60;;
15402;SDS011;7799;53.478;10.170;2023-07-24T10:48:33;3.60;;;3.40;;
15402;SDS011;7799;53.478;10.170;2023-07-24T10:51:06;3.77;;;3.53;;
15402;SDS011;7799;53.478;10.170;2023-07-24T10:53:34;3.90;;;3.70;;
15402;SDS011;7799;53.478;10.170;2023-07-24T10:56:01;4.03;;;3.77;;
15402;SDS011;7799;53.478;10.170;2023-07-24T10:58:28;4.00;;;3.80;;
15402;SDS011;7799;53.478;10.170;2023-07-24T11:00:56;4.10;;;3.90;;
15402;SDS011;7799;53.478;10.170;2023-07-24T11:03:24;4.25;;;4.05;;
15402;SDS011;7799;53.478;10.170;2023-07-24T11:05:50;4.25;;;4.05;;
15402;SDS011;7799;53.478;10.170;2023-07-24T11:08:20;4.05;;;3.85;;
15402;SDS011;7799;53.478;10.170;2023-07-24T11:10:47;4.57;;;4.28;;
15402;SDS011;7799;53.478;10.170;2023-07-24T11:13:15;3.97;;;3.78;;
15402;SDS011;7799;53.478;10.170;2023-07-24T11:15:42;4.25;;;4.00;;
15402;SDS011;7799;53.478;10.170;2023-07-24T11:18:08;3.70;;;3.50;;
15402;SDS011;7799;53.478;10.170;2023-07-24T11:20:36;3.50;;;3.30;;
15402;SDS011;7799;53.478;10.170;2023-07-24T11:23:04;2.92;;;2.83;;
15402;SDS011;7799;53.478;10.170;2023-07-24T11:25:32;2.88;;;2.78;;
15402;SDS011;7799;53.478;10.170;2023-07-24T11:27:59;2.63;;;2.53;;
15402;SDS011;7799;53.478;10.170;2023-07-24T11:30:26;2.80;;;2.70;;
15402;SDS011;7799;53.478;10.170;2023-07-24T11:32:53;3.00;;;2.80;;
15402;SDS011;7799;53.478;10.170;2023-07-24T11:35:20;2.30;;;2.20;;
15402;SDS011;7799;53.478;10.170;2023-07-24T11:37:47;2.60;;;2.50;;
15402;SDS011;7799;53.478;10.170;2023-07-24T11:40:14;2.30;;;2.20;;
15402;SDS011;7799;53.478;10.170;2023-07-24T11:42:43;2.43;;;2.33;;
15402;SDS011;7799;53.478;10.170;2023-07-24T11:45:10;2.60;;;2.50;;
15402;SDS011;7799;53.478;10.170;2023-07-24T11:47:43;2.83;;;2.63;;
15402;SDS011;7799;53.478;10.170;2023-07-24T11:50:11;2.93;;;2.73;;
15402;SDS011;7799;53.478;10.170;2023-07-24T11:52:38;2.63;;;2.53;;
15402;SDS011;7799;53.478;10.170;2023-07-24T11:55:06;2.80;;;2.60;;
15402;SDS011;7799;53.478;10.170;2023-07-24T11:57:33;2.80;;;2.70;;
15402;SDS011;7799;53.478;10.170;2023-07-24T12:00:02;3.57;;;3.30;;
15402;SDS011;7799;53.478;10.170;2023-07-24T12:02:33;3.70;;;3.50;;
15402;SDS011;7799;53.478;10.170;2023-07-24T12:04:59;3.83;;;3.63;;
15402;SDS011;7799;53.478;10.170;2023-07-24T12:07:31;3.60;;;3.40;;
15402;SDS011;7799;53.478;10.170;2023-07-24T12:09:59;3.40;;;3.20;;
15402;SDS011;7799;53.478;10.170;2023-07-24T12:12:26;3.20;;;3.00;;
15402;SDS011;7799;53.478;10.170;2023-07-24T12:15:05;2.83;;;2.72;;
15402;SDS011;7799;53.478;10.170;2023-07-24T12:17:32;2.70;;;2.60;;
15402;SDS011;7799;53.478;10.170;2023-07-24T12:19:59;2.78;;;2.58;;
15402;SDS011;7799;53.478;10.170;2023-07-24T12:22:25;2.38;;;2.28;;
15402;SDS011;7799;53.478;10.170;2023-07-24T12:24:52;2.38;;;2.28;;
15402;SDS011;7799;53.478;10.170;2023-07-24T12:27:19;2.00;;;1.90;;
15402;SDS011;7799;53.478;10.170;2023-07-24T12:29:45;2.00;;;1.90;;
15402;SDS011;7799;53.478;10.170;2023-07-24T12:32:13;2.20;;;2.10;;
15402;SDS011;7799;53.478;10.170;2023-07-24T12:34:40;2.20;;;2.10;;
15402;SDS011;7799;53.478;10.170;2023-07-24T12:37:07;1.98;;;1.88;;
15402;SDS011;7799;53.478;10.170;2023-07-24T12:39:33;2.53;;;2.33;;
15402;SDS011;7799;53.478;10.170;2023-07-24T12:42:00;2.38;;;2.28;;
15402;SDS011;7799;53.478;10.170;2023-07-24T12:44:27;2.35;;;2.25;;
15402;SDS011;7799;53.478;10.170;2023-07-24T12:46:53;1.98;;;1.88;;
15402;SDS011;7799;53.478;10.170;2023-07-24T12:49:21;2.10;;;2.00;;
15402;SDS011;7799;53.478;10.170;2023-07-24T12:51:48;2.00;;;1.90;;
15402;SDS011;7799;53.478;10.170;2023-07-24T12:54:14;1.83;;;1.73;;
15402;SDS011;7799;53.478;10.170;2023-07-24T12:56:41;1.98;;;1.88;;
15402;SDS011;7799;53.478;10.170;2023-07-24T12:59:08;1.88;;;1.77;;
15402;SDS011;7799;53.478;10.170;2023-07-24T13:01:34;1.63;;;1.52;;
15402;SDS011;7799;53.478;10.170;2023-07-24T13:04:01;1.80;;;1.70;;
15402;SDS011;7799;53.478;10.170;2023-07-24T13:06:29;1.50;;;1.40;;
15402;SDS011;7799;53.478;10.170;2023-07-24T13:08:56;1.67;;;1.58;;
15402;SDS011;7799;53.478;10.170;2023-07-24T13:11:22;1.85;;;1.75;;
15402;SDS011;7799;53.478;10.170;2023-07-24T13:13:49;1.88;;;1.77;;
15402;SDS011;7799;53.478;10.170;2023-07-24T13:16:16;1.80;;;1.70;;
15402;SDS011;7799;53.478;10.170;2023-07-24T13:18:42;1.80;;;1.70;;
15402;SDS011;7799;53.478;10.170;2023-07-24T13:21:09;2.00;;;1.90;;
15402;SDS011;7799;53.478;10.170;2023-07-24T13:23:37;2.13;;;2.00;;
15402;SDS011;7799;53.478;10.170;2023-07-24T13:26:04;2.60;;;2.40;;
15402;SDS011;7799;53.478;10.170;2023-07-24T13:28:30;2.33;;;2.22;;
15402;SDS011;7799;53.478;10.170;2023-07-24T13:30:57;2.00;;;1.90;;
15402;SDS011;7799;53.478;10.170;2023-07-24T13:33:24;2.33;;;2.22;;
15402;SDS011;7799;53.478;10.170;2023-07-24T13:35:50;1.95;;;1.85;;
15402;SDS011;7799;53.478;10.170;2023-07-24T13:38:17;2.00;;;1.90;;
15402;SDS011;7799;53.478;10.170;2023-07-24T13:40:45;1.92;;;1.83;;
15402;SDS011;7799;53.478;10.170;2023-07-24T13:43:12;2.20;;;2.10;;
15402;SDS011;7799;53.478;10.170;2023-07-24T13:45:39;2.00;;;1.90;;
15402;SDS011;7799;53.478;10.170;2023-07-24T13:48:05;2.00;;;1.90;;
15402;SDS011;7799;53.478;10.170;2023-07-24T13:50:32;2.30;;;2.15;;
15402;SDS011;7799;53.478;10.170;2023-07-24T13:52:59;2.50;;;2.10;;
15402;SDS011;7799;53.478;10.170;2023-07-24T13:55:26;2.10;;;2.00;;
15402;SDS011;7799;53.478;10.170;2023-07-24T13:57:53;2.00;;;1.90;;
15402;SDS011;7799;53.478;10.170;2023-07-24T14:00:20;1.90;;;1.80;;
15402;SDS011;7799;53.478;10.170;2023-07-24T14:02:47;1.83;;;1.73;;
15402;SDS011;7799;53.478;10.170;2023-07-24T14:05:15;2.40;;;2.30;;
15402;SDS011;7799;53.478;10.170;2023-07-24T14:07:42;2.80;;;2.60;;
15402;SDS011;7799;53.478;10.170;2023-07-24T14:10:09;2.80;;;2.60;;
15402;SDS011;7799;53.478;10.170;2023-07-24T14:12:36;2.30;;;2.20;;
15402;SDS011;7799;53.478;10.170;2023-07-24T14:15:05;2.60;;;2.50;;
15402;SDS011;7799;53.478;10.170;2023-07-24T14:17:32;1.97;;;1.87;;
15402;SDS011;7799;53.478;10.170;2023-07-24T14:20:00;2.60;;;2.40;;
15402;SDS011;7799;53.478;10.170;2023-07-24T14:22:26;2.50;;;2.30;;
15402;SDS011;7799;53.478;10.170;2023-07-24T14:24:53;2.47;;;2.37;;
15402;SDS011;7799;53.478;10.170;2023-07-24T14:27:20;2.03;;;1.93;;
15402;SDS011;7799;53.478;10.170;2023-07-24T14:29:46;2.10;;;2.00;;
15402;SDS011;7799;53.478;10.170;2023-07-24T14:32:14;2.50;;;2.40;;
15402;SDS011;7799;53.478;10.170;2023-07-24T14:34:41;2.20;;;2.10;;
15402;SDS011;7799;53.478;10.170;2023-07-24T14:37:08;2.50;;;2.40;;
15402;SDS011;7799;53.478;10.170;2023-07-24T14:39:34;2.90;;;2.70;;
15402;SDS011;7799;53.478;10.170;2023-07-24T14:42:02;3.00;;;2.80;;
15402;SDS011;7799;53.478;10.170;2023-07-24T14:44:28;3.30;;;2.95;;
15402;SDS011;7799;53.478;10.170;2023-07-24T14:46:55;3.10;;;2.90;;